Campanya meteocatpedra

Dades EMA Ulldeter (2.410 m)

?
?
Resum diari
Dades diàries de l'estació meteorològica
Temperatura mitjana 3.5 °C
Temperatura màxima 6.3 °C 14:32 TU
Temperatura mínima 0.6 °C 21:51 TU
Humitat relativa mitjana 11%
Precipitació acumulada 0.0 mm
Gruix de neu màxim 21 cm
Ratxa màxima del vent (10 m) 26.3 km/h - 251º 23:53 TU
Irradiació solar global 9.0 MJ/m2

El tram horari està expressat en Temps Universal (TU). Cal sumar una hora en horari d'hivern i dues en horari d'estiu per passar a l'hora oficial.

Ulldeter (2.410 m)

Metadades estació meteorol´gica
Municipi Setcases
Comarca Ripollès
Altitud 2410 m
Data alta 28.09.2011
Estat actual Operativa
Dades de període
Període
TU
TM
°C
TX
°C
TN
°C
HRM
%
PPT
mm
GN
cm
VVM (10 m)
km/h
DVM (10 m)
graus
VVX (10 m)
km/h
RS
W/m2
00:00 - 00:30 2.5 3.3 1.8 12 0.0 21 3.2 294 7.6 0
00:30 - 01:00 2.1 3.1 1.3 13 0.0 21 5.0 291 9.0 0
01:00 - 01:30 2.0 3.3 0.9 12 0.0 21 3.2 294 10.4 0
01:30 - 02:00 2.3 2.7 1.3 9 0.0 21 5.8 272 10.8 0
02:00 - 02:30 2.1 3.1 1.4 10 0.0 21 4.3 264 11.2 0
02:30 - 03:00 3.1 3.5 1.5 9 0.0 21 4.0 249 9.0 0
03:00 - 03:30 4.2 4.5 3.2 8 0.0 21 4.7 185 15.5 0
03:30 - 04:00 3.8 4.5 3.3 9 0.0 21 7.6 217 15.1 0
04:00 - 04:30 3.8 4.7 2.8 9 0.0 21 7.9 246 18.4 0
04:30 - 05:00 4.3 4.7 3.9 7 0.0 21 10.4 261 16.2 0
05:00 - 05:30 3.1 4.7 2.1 9 0.0 21 10.4 234 15.5 0
05:30 - 06:00 2.0 3.6 1.2 10 0.0 21 9.7 237 15.1 0
06:00 - 06:30 4.0 4.8 2.8 7 0.0 21 10.1 255 16.2 0
06:30 - 07:00 2.5 4.7 1.5 11 0.0 21 11.2 226 16.9 0
07:00 - 07:30 2.5 4.2 1.3 10 0.0 21 12.2 240 15.8 6
07:30 - 08:00 4.5 4.9 4.0 6 0.0 21 10.8 259 14.4 50
08:00 - 08:30 5.1 5.4 4.8 7 0.0 21 10.1 260 16.9 106
08:30 - 09:00 3.3 4.7 2.3 11 0.0 21 10.1 238 15.8 191
09:00 - 09:30 4.8 5.4 3.0 9 0.0 21 9.0 260 13.0 240
09:30 - 10:00 4.3 4.9 2.5 10 0.0 21 10.1 260 14.0 357
10:00 - 10:30 3.9 5.3 3.1 11 0.0 21 9.7 240 15.8 418
10:30 - 11:00 4.0 5.4 2.5 12 0.0 21 10.4 241 16.2 471
11:00 - 11:30 5.8 6.1 5.0 9 0.0 21 10.4 266 14.8 500
11:30 - 12:00 5.1 6.2 3.1 12 0.0 21 11.2 249 15.1 513
12:00 - 12:30 4.2 5.7 3.1 14 0.0 21 10.4 242 17.3 486
12:30 - 13:00 4.4 5.8 2.5 14 0.0 21 10.4 245 14.8 454
13:00 - 13:30 5.1 6.1 3.3 11 0.0 21 9.4 244 13.0 409
13:30 - 14:00 4.6 5.5 3.4 13 0.0 21 9.0 250 13.0 357
14:00 - 14:30 5.3 6.1 4.0 9 0.0 21 8.6 266 12.2 298
14:30 - 15:00 5.2 6.3 4.3 9 0.0 21 7.9 261 13.7 112
15:00 - 15:30 4.0 4.9 2.9 11 0.0 21 6.1 270 11.9 21
15:30 - 16:00 3.9 4.8 3.0 11 0.0 21 5.8 268 10.4 12
16:00 - 16:30 3.3 3.9 2.6 11 0.0 21 6.5 261 10.8 2
16:30 - 17:00 3.7 4.4 2.8 10 0.0 21 6.8 266 10.8 0
17:00 - 17:30 3.9 4.5 3.5 10 0.0 21 5.8 261 8.6 0
17:30 - 18:00 3.4 3.8 3.0 11 0.0 21 5.8 261 8.3 0
18:00 - 18:30 2.9 3.8 2.2 11 0.0 21 5.0 268 10.4 0
18:30 - 19:00 3.0 3.7 2.0 12 0.0 21 9.7 236 16.9 0
19:00 - 19:30 2.4 3.3 1.6 13 0.0 21 12.6 227 18.0 0
19:30 - 20:00 2.9 3.4 2.2 11 0.0 21 13.3 225 17.6 0
20:00 - 20:30 2.6 3.9 1.8 11 0.0 21 10.4 244 20.9 0
20:30 - 21:00 2.3 3.1 1.6 12 0.0 21 11.9 238 20.2 0
21:00 - 21:30 2.6 3.8 2.0 11 0.0 21 8.3 250 19.1 0
21:30 - 22:00 2.0 2.7 0.6 12 0.0 21 16.6 246 23.8 0
22:00 - 22:30 2.3 2.9 1.1 12 0.0 21 19.8 251 24.1 0
22:30 - 23:00 2.1 2.7 1.1 15 0.0 21 20.2 248 23.4 0
23:00 - 23:30 1.8 2.6 1.0 14 0.0 21 19.8 245 23.4 0
23:30 - 00:00 3.0 3.4 2.5 17 0.0 21 23.8 246 26.3 0

Les dades en taronja només han passat un control de qualitat automàtic. Resta pendent la seva validació definitiva.